createdAt,value
2018-11-23T00:01:58.959Z,37.00
2018-11-23T00:04:08.491Z,38.93
2018-11-23T00:06:12.789Z,39.03
2018-11-23T00:08:18.034Z,39.97
2018-11-23T00:10:24.226Z,40.10
2018-11-23T00:12:31.091Z,37.93
2018-11-23T00:14:35.934Z,36.83
2018-11-23T00:16:42.811Z,40.40
2018-11-23T00:18:47.734Z,37.10
2018-11-23T00:20:53.070Z,37.37
2018-11-23T00:22:57.803Z,38.43
2018-11-23T00:25:03.130Z,38.07
2018-11-23T00:27:08.488Z,38.90
2018-11-23T00:29:13.607Z,39.80
2018-11-23T00:31:17.866Z,39.37
2018-11-23T00:33:23.289Z,41.37
2018-11-23T00:35:28.795Z,38.70
2018-11-23T00:37:33.057Z,38.30
2018-11-23T00:39:37.286Z,40.77
2018-11-23T00:41:41.575Z,38.77
2018-11-23T00:43:45.817Z,38.70
2018-11-23T00:45:50.210Z,40.40
2018-11-23T00:47:55.151Z,39.60
2018-11-23T00:49:59.382Z,37.43
2018-11-23T00:52:03.672Z,39.37
2018-11-23T00:54:08.011Z,39.43
2018-11-23T00:56:12.243Z,37.67
2018-11-23T00:58:16.533Z,36.97
2018-11-23T01:00:24.651Z,39.57
2018-11-23T01:02:29.170Z,37.93
2018-11-23T01:04:34.530Z,38.97
2018-11-23T01:06:39.935Z,38.37
2018-11-23T01:08:44.272Z,37.40
2018-11-23T01:10:48.504Z,38.33
2018-11-23T01:12:53.726Z,41.50
2018-11-23T01:14:58.021Z,39.67
2018-11-23T01:17:02.965Z,39.67
2018-11-23T01:19:07.584Z,40.00
2018-11-23T01:21:11.917Z,37.90
2018-11-23T01:23:16.100Z,39.10
2018-11-23T01:25:21.774Z,38.17
2018-11-23T01:27:26.018Z,34.30
2018-11-23T01:29:30.197Z,39.07
2018-11-23T01:31:34.499Z,39.57
2018-11-23T01:33:38.755Z,36.63
2018-11-23T01:35:42.938Z,38.20
2018-11-23T01:37:47.267Z,37.47
2018-11-23T01:39:51.699Z,39.00
2018-11-23T01:41:55.967Z,38.30
2018-11-23T01:44:00.240Z,38.00
2018-11-23T01:46:04.660Z,38.93
2018-11-23T01:48:08.878Z,39.43
2018-11-23T01:50:18.434Z,35.13
2018-11-23T01:52:22.850Z,37.10
2018-11-23T01:54:27.063Z,39.30
2018-11-23T01:56:31.299Z,39.43
2018-11-23T01:58:35.570Z,37.07
2018-11-23T02:00:39.809Z,37.77
2018-11-23T02:02:44.392Z,41.10
2018-11-23T02:04:48.666Z,38.00
2018-11-23T02:06:52.902Z,39.07
2018-11-23T02:08:57.183Z,38.60
2018-11-23T02:11:01.410Z,36.60
2018-11-23T02:13:05.892Z,39.63
2018-11-23T02:15:14.192Z,37.73
2018-11-23T02:17:18.498Z,40.07
2018-11-23T02:19:22.690Z,39.80
2018-11-23T02:21:26.938Z,36.97
2018-11-23T02:23:31.125Z,36.90
2018-11-23T02:25:35.421Z,38.23
2018-11-23T02:27:39.742Z,37.47
2018-11-23T02:29:44.931Z,37.10
2018-11-23T02:31:48.288Z,38.07
2018-11-23T02:33:52.629Z,35.60
2018-11-23T02:35:56.905Z,39.20
2018-11-23T02:38:01.155Z,38.33
2018-11-23T02:40:05.538Z,37.30
2018-11-23T02:42:09.793Z,38.30
2018-11-23T02:44:14.033Z,37.07
2018-11-23T02:46:40.991Z,38.30
2018-11-23T02:48:46.429Z,36.03
2018-11-23T02:50:50.665Z,34.23
2018-11-23T02:52:54.974Z,38.77
2018-11-23T02:54:59.176Z,37.57
2018-11-23T02:57:07.210Z,35.67
2018-11-23T02:59:11.500Z,36.93
2018-11-23T03:01:15.797Z,37.97
2018-11-23T03:03:20.071Z,36.30
2018-11-23T03:05:24.919Z,35.07
2018-11-23T03:07:29.233Z,34.87
2018-11-23T03:09:33.480Z,36.07
2018-11-23T03:11:39.833Z,36.03
2018-11-23T03:13:44.049Z,37.37
2018-11-23T03:15:48.322Z,34.63
2018-11-23T03:17:52.724Z,37.07
2018-11-23T03:19:56.908Z,39.17
2018-11-23T03:22:01.275Z,34.57
2018-11-23T03:24:05.625Z,37.53
2018-11-23T03:26:09.995Z,37.53
2018-11-23T03:28:14.293Z,35.10
2018-11-23T03:30:20.897Z,35.80
2018-11-23T03:32:25.131Z,37.17
2018-11-23T03:34:29.329Z,36.73
2018-11-23T03:36:33.590Z,35.60
2018-11-23T03:38:38.006Z,35.63
2018-11-23T03:40:42.865Z,37.60
2018-11-23T03:42:47.221Z,37.13
2018-11-23T03:44:51.594Z,37.93
2018-11-23T03:46:56.499Z,37.43
2018-11-23T03:49:01.384Z,35.33
2018-11-23T03:51:06.831Z,38.73
2018-11-23T03:53:11.425Z,34.17
2018-11-23T03:55:16.164Z,37.27
2018-11-23T03:57:20.890Z,37.17
2018-11-23T03:59:25.350Z,36.80
2018-11-23T04:01:29.594Z,37.90
2018-11-23T04:03:33.965Z,36.97
2018-11-23T04:05:38.516Z,35.27
2018-11-23T04:07:43.045Z,33.77
2018-11-23T04:09:47.255Z,36.40
2018-11-23T04:11:51.717Z,34.47
2018-11-23T04:13:55.959Z,36.70
2018-11-23T04:16:00.243Z,35.67
2018-11-23T04:18:04.520Z,35.93
2018-11-23T04:20:10.697Z,35.77
2018-11-23T04:22:15.015Z,34.27
2018-11-23T04:24:19.230Z,33.17
2018-11-23T04:26:24.865Z,34.73
2018-11-23T04:28:27.841Z,34.40
2018-11-23T04:30:32.113Z,34.83
2018-11-23T04:32:36.430Z,33.73
2018-11-23T04:34:40.748Z,33.07
2018-11-23T04:36:45.018Z,33.47
2018-11-23T04:38:49.374Z,33.50
2018-11-23T04:40:53.834Z,33.73
2018-11-23T04:42:58.129Z,35.00
2018-11-23T04:45:02.398Z,35.60
2018-11-23T04:47:06.826Z,34.50
2018-11-23T04:49:11.024Z,32.70
2018-11-23T04:51:15.469Z,33.53
2018-11-23T04:53:19.826Z,34.80
2018-11-23T04:55:24.156Z,32.27
2018-11-23T04:57:28.454Z,33.60
2018-11-23T04:59:32.734Z,32.93
2018-11-23T05:01:37.316Z,32.43
2018-11-23T05:03:41.518Z,32.63
2018-11-23T05:05:45.923Z,28.83
2018-11-23T05:07:50.235Z,30.07
2018-11-23T05:09:54.462Z,29.87
2018-11-23T05:11:58.800Z,29.90
2018-11-23T05:14:03.039Z,32.43
2018-11-23T05:16:07.322Z,31.43
2018-11-23T05:18:11.513Z,32.17
2018-11-23T05:20:16.417Z,30.40
2018-11-23T05:22:20.728Z,28.90
2018-11-23T05:24:25.009Z,30.10
2018-11-23T05:26:29.288Z,33.03
2018-11-23T05:28:33.517Z,33.67
2018-11-23T05:30:37.715Z,32.17
2018-11-23T05:32:42.000Z,33.27
2018-11-23T05:34:46.223Z,34.57
2018-11-23T05:36:50.566Z,35.33
2018-11-23T05:38:54.883Z,33.30
2018-11-23T05:40:59.170Z,33.30
2018-11-23T05:43:04.536Z,36.03
2018-11-23T05:45:09.779Z,35.63
2018-11-23T05:47:14.091Z,33.23
2018-11-23T05:49:18.333Z,34.63
2018-11-23T05:51:22.582Z,33.17
2018-11-23T05:53:26.854Z,33.53
2018-11-23T05:55:31.137Z,31.80
2018-11-23T05:57:35.389Z,35.17
2018-11-23T05:59:39.646Z,33.70
2018-11-23T06:01:43.948Z,33.80
2018-11-23T06:03:48.233Z,32.70
2018-11-23T06:05:52.504Z,31.67
2018-11-23T06:07:56.761Z,30.00
2018-11-23T06:10:00.992Z,32.50
2018-11-23T06:12:05.723Z,28.60
2018-11-23T06:14:10.003Z,28.07
2018-11-23T06:16:14.419Z,27.43
2018-11-23T06:18:19.092Z,29.53
2018-11-23T06:20:25.232Z,31.83
2018-11-23T06:22:29.823Z,29.27
2018-11-23T06:24:34.173Z,35.23
2018-11-23T06:26:38.577Z,37.67
2018-11-23T06:28:42.941Z,30.27
2018-11-23T06:30:47.218Z,31.33
2018-11-23T06:33:02.501Z,33.73
2018-11-23T06:35:07.107Z,31.90
2018-11-23T06:37:11.359Z,31.07
2018-11-23T06:39:15.540Z,32.67
2018-11-23T06:41:19.771Z,31.17
2018-11-23T06:43:24.011Z,30.33
2018-11-23T06:45:28.276Z,29.83
2018-11-23T06:47:32.565Z,30.53
2018-11-23T06:49:36.866Z,35.83
2018-11-23T06:51:41.130Z,43.03
2018-11-23T06:53:45.493Z,51.10
2018-11-23T06:55:49.723Z,55.63
2018-11-23T06:57:54.069Z,47.60
2018-11-23T06:59:58.333Z,40.27
2018-11-23T07:02:02.561Z,34.03
2018-11-23T07:04:06.805Z,31.90
2018-11-23T07:06:11.001Z,19.47
2018-11-23T07:08:15.319Z,21.70
2018-11-23T07:10:19.618Z,21.57
2018-11-23T07:12:23.895Z,21.53
2018-11-23T07:14:28.113Z,21.97
2018-11-23T07:16:32.293Z,23.40
2018-11-23T07:18:36.544Z,21.03
2018-11-23T07:20:40.788Z,20.27
2018-11-23T07:22:45.148Z,21.10
2018-11-23T07:24:49.395Z,20.13
2018-11-23T07:26:53.623Z,22.77
2018-11-23T07:28:57.991Z,23.40
2018-11-23T07:31:02.618Z,23.43
2018-11-23T07:33:07.043Z,20.57
2018-11-23T07:35:14.010Z,16.97
2018-11-23T07:37:21.399Z,20.00
2018-11-23T07:39:40.727Z,20.87
2018-11-23T07:41:56.160Z,20.50
2018-11-23T07:44:00.426Z,23.90
2018-11-23T07:46:04.729Z,24.30
2018-11-23T07:48:09.466Z,26.70
2018-11-23T07:50:13.682Z,27.40
2018-11-23T07:52:18.377Z,22.97
2018-11-23T07:54:22.820Z,24.93
2018-11-23T07:56:27.130Z,24.73
2018-11-23T07:58:40.965Z,25.10
2018-11-23T08:00:46.364Z,21.90
2018-11-23T08:02:52.478Z,22.80
2018-11-23T08:04:56.903Z,22.63
2018-11-23T08:07:01.210Z,22.00
2018-11-23T08:09:07.507Z,21.07
2018-11-23T08:11:11.768Z,22.47
2018-11-23T08:13:16.029Z,22.90
2018-11-23T08:15:22.811Z,23.53
2018-11-23T08:17:27.056Z,21.20
2018-11-23T08:19:31.341Z,20.87
2018-11-23T08:21:35.615Z,21.13
2018-11-23T08:23:39.856Z,21.33
2018-11-23T08:25:44.141Z,21.40
2018-11-23T08:27:49.232Z,21.53
2018-11-23T08:29:53.517Z,21.37
2018-11-23T08:31:57.860Z,21.03
2018-11-23T08:34:02.615Z,21.50
2018-11-23T08:36:07.020Z,20.57
2018-11-23T08:38:11.273Z,22.53
2018-11-23T08:40:18.282Z,19.90
2018-11-23T08:42:22.581Z,20.00
2018-11-23T08:44:26.915Z,20.30
2018-11-23T08:46:31.301Z,21.17
2018-11-23T08:48:35.518Z,21.43
2018-11-23T08:50:39.723Z,20.73
2018-11-23T08:52:44.076Z,23.90
2018-11-23T08:54:48.318Z,22.70
2018-11-23T08:56:52.649Z,22.30
2018-11-23T08:58:56.880Z,21.73
2018-11-23T09:01:01.106Z,25.10
2018-11-23T09:03:05.646Z,26.37
2018-11-23T09:05:09.958Z,28.03
2018-11-23T09:07:14.253Z,27.77
2018-11-23T09:09:18.901Z,28.50
2018-11-23T09:11:23.209Z,30.70
2018-11-23T09:13:27.734Z,32.60
2018-11-23T09:15:32.020Z,31.37
2018-11-23T09:17:36.368Z,31.90
2018-11-23T09:19:40.570Z,32.23
2018-11-23T09:21:45.028Z,37.10
2018-11-23T09:23:49.379Z,36.87
2018-11-23T09:25:53.654Z,36.17
2018-11-23T09:27:57.858Z,35.27
2018-11-23T09:30:02.114Z,35.83
2018-11-23T09:32:06.712Z,35.50
2018-11-23T09:34:10.906Z,38.00
2018-11-23T09:36:15.137Z,37.20
2018-11-23T09:38:19.415Z,37.63
2018-11-23T09:40:25.133Z,37.50
2018-11-23T09:42:29.430Z,40.80
2018-11-23T09:44:33.740Z,36.87
2018-11-23T09:46:37.980Z,35.23
2018-11-23T09:48:42.246Z,36.43
2018-11-23T09:50:50.117Z,40.13
2018-11-23T09:52:56.032Z,39.00
2018-11-23T09:55:00.274Z,38.77
2018-11-23T09:57:04.485Z,38.07
2018-11-23T09:59:08.855Z,41.63
2018-11-23T10:01:13.067Z,34.60
2018-11-23T10:03:17.261Z,40.43
2018-11-23T10:05:21.960Z,34.73
2018-11-23T10:07:26.257Z,41.87
2018-11-23T10:09:30.529Z,39.47
2018-11-23T10:11:34.898Z,39.60
2018-11-23T10:13:39.095Z,39.90
2018-11-23T10:15:43.376Z,37.50
2018-11-23T10:17:47.703Z,37.10
2018-11-23T10:19:57.792Z,35.47
2018-11-23T10:21:56.436Z,40.43
2018-11-23T10:24:00.666Z,26.23
2018-11-23T10:26:04.976Z,26.90
2018-11-23T10:28:09.206Z,38.17
2018-11-23T10:30:18.928Z,40.20
2018-11-23T10:32:23.189Z,38.67
2018-11-23T10:34:27.439Z,25.27
2018-11-23T10:36:31.695Z,37.07
2018-11-23T10:38:35.936Z,36.77
2018-11-23T10:40:41.120Z,40.03
2018-11-23T10:42:45.736Z,37.90
2018-11-23T10:47:15.573Z,39.03
2018-11-23T10:49:19.827Z,39.57
2018-11-23T10:51:24.044Z,37.57
2018-11-23T10:53:28.582Z,39.23
2018-11-23T10:55:34.115Z,35.60
2018-11-23T10:57:38.353Z,38.13
2018-11-23T10:59:42.647Z,34.33
2018-11-23T11:01:52.062Z,33.80
2018-11-23T11:04:00.187Z,36.10
2018-11-23T11:06:11.097Z,35.50
2018-11-23T11:08:15.293Z,33.93
2018-11-23T11:10:19.488Z,35.73
2018-11-23T11:12:23.672Z,31.87
2018-11-23T11:14:27.884Z,36.37
2018-11-23T11:16:32.127Z,36.83
2018-11-23T11:18:36.339Z,33.97
2018-11-23T11:20:40.561Z,35.63
2018-11-23T11:22:45.931Z,34.90
2018-11-23T11:24:51.009Z,35.47
2018-11-23T11:26:55.269Z,36.50
2018-11-23T11:28:59.641Z,37.77
2018-11-23T11:31:03.905Z,37.43
2018-11-23T11:33:08.099Z,37.27
2018-11-23T11:35:12.971Z,35.67
2018-11-23T11:37:17.238Z,33.43
2018-11-23T11:39:21.425Z,35.33
2018-11-23T11:41:25.601Z,35.53
2018-11-23T11:43:29.780Z,25.87
2018-11-23T11:45:34.051Z,36.50
2018-11-23T11:47:38.328Z,30.80
2018-11-23T11:49:44.783Z,34.60
2018-11-23T11:51:50.771Z,29.43
2018-11-23T11:53:54.955Z,29.67
2018-11-23T11:55:59.196Z,33.47
2018-11-23T11:58:03.434Z,28.20
2018-11-23T12:00:09.984Z,29.07
2018-11-23T12:02:14.185Z,22.30
2018-11-23T12:04:18.506Z,33.13
2018-11-23T12:06:22.755Z,32.80
2018-11-23T12:08:27.006Z,26.33
2018-11-23T12:10:31.231Z,33.67
2018-11-23T12:12:35.476Z,34.97
2018-11-23T12:14:39.632Z,34.83
2018-11-23T12:16:43.868Z,27.30
2018-11-23T12:18:48.200Z,34.60
2018-11-23T12:20:52.688Z,29.50
2018-11-23T12:22:56.880Z,33.80
2018-11-23T12:25:01.036Z,36.50
2018-11-23T12:27:05.380Z,36.70
2018-11-23T12:29:09.652Z,34.97
2018-11-23T12:31:13.906Z,36.50
2018-11-23T12:33:18.352Z,35.97
2018-11-23T12:35:23.091Z,34.50
2018-11-23T12:37:27.314Z,36.53
2018-11-23T12:39:31.495Z,34.10
2018-11-23T12:41:35.734Z,37.00
2018-11-23T12:43:39.936Z,37.17
2018-11-23T12:45:44.130Z,32.43
2018-11-23T12:47:48.362Z,37.80
2018-11-23T12:49:52.598Z,31.97
2018-11-23T12:51:56.886Z,33.57
2018-11-23T12:54:01.055Z,36.87
2018-11-23T12:56:05.753Z,38.97
2018-11-23T12:58:09.961Z,37.23
2018-11-23T13:00:20.481Z,36.27
2018-11-23T13:02:24.732Z,29.60
2018-11-23T13:04:28.926Z,35.27
2018-11-23T13:06:33.599Z,37.00
2018-11-23T13:08:37.860Z,30.90
2018-11-23T13:10:43.068Z,31.43
2018-11-23T13:12:50.644Z,37.93
2018-11-23T13:14:50.746Z,30.27
2018-11-23T13:16:55.016Z,38.00
2018-11-23T13:18:59.180Z,38.73
2018-11-23T13:21:03.415Z,39.07
2018-11-23T13:23:07.619Z,37.57
2018-11-23T13:25:15.010Z,36.83
2018-11-23T13:27:19.200Z,37.47
2018-11-23T13:29:23.463Z,35.30
2018-11-23T13:31:27.727Z,38.17
2018-11-23T13:33:31.924Z,37.17
2018-11-23T13:35:36.140Z,36.27
2018-11-23T13:37:40.417Z,38.37
2018-11-23T13:39:44.696Z,35.50
2018-11-23T13:41:48.840Z,29.33
2018-11-23T13:43:53.198Z,39.27
2018-11-23T13:45:57.330Z,36.67
2018-11-23T13:48:01.585Z,39.00
2018-11-23T13:50:07.501Z,33.50
2018-11-23T13:52:11.695Z,36.67
2018-11-23T13:54:15.901Z,38.17
2018-11-23T13:56:20.071Z,38.53
2018-11-23T13:58:24.317Z,33.63
2018-11-23T14:00:29.771Z,38.07
2018-11-23T14:02:33.930Z,38.17
2018-11-23T14:04:38.139Z,38.20
2018-11-23T14:06:42.390Z,34.73
2018-11-23T14:08:46.835Z,35.40
2018-11-23T14:10:51.024Z,35.87
2018-11-23T14:12:55.184Z,35.10
2018-11-23T14:14:59.464Z,35.90
2018-11-23T14:17:03.659Z,36.83
2018-11-23T14:19:07.895Z,35.67
2018-11-23T14:21:12.185Z,37.80
2018-11-23T14:23:16.517Z,33.97
2018-11-23T14:25:23.284Z,38.07
2018-11-23T14:27:27.585Z,37.70
2018-11-23T14:29:31.854Z,33.80
2018-11-23T14:31:36.068Z,37.33
2018-11-23T14:33:40.299Z,34.93
2018-11-23T14:35:44.590Z,34.87
2018-11-23T14:37:49.726Z,37.13
2018-11-23T14:39:53.983Z,38.23
2018-11-23T14:41:58.223Z,38.43
2018-11-23T14:44:06.804Z,37.43
2018-11-23T14:46:06.912Z,31.97
2018-11-23T14:48:11.228Z,35.23
2018-11-23T14:50:18.032Z,36.00
2018-11-23T14:52:22.430Z,35.93
2018-11-23T14:54:26.738Z,37.63
2018-11-23T14:56:30.961Z,38.67
2018-11-23T14:58:37.759Z,39.53
2018-11-23T15:00:44.047Z,37.17
2018-11-23T15:02:49.544Z,38.07
2018-11-23T15:04:53.766Z,37.77
2018-11-23T15:06:58.666Z,35.60
2018-11-23T15:09:02.955Z,37.57
2018-11-23T15:11:07.480Z,37.30
2018-11-23T15:13:11.647Z,37.33
2018-11-23T15:15:23.111Z,38.23
2018-11-23T15:17:27.297Z,37.47
2018-11-23T15:19:31.478Z,37.90
2018-11-23T15:21:35.655Z,36.63
2018-11-23T15:23:39.900Z,37.87
2018-11-23T15:25:44.120Z,38.77
2018-11-23T15:27:48.359Z,34.03
2018-11-23T15:29:52.663Z,37.30
2018-11-23T15:31:56.846Z,39.43
2018-11-23T15:34:00.985Z,34.90
2018-11-23T15:36:05.707Z,38.70
2018-11-23T15:38:12.642Z,37.83
2018-11-23T15:40:19.439Z,34.50
2018-11-23T15:42:23.649Z,36.70
2018-11-23T15:44:27.831Z,36.53
2018-11-23T15:46:32.052Z,35.53
2018-11-23T15:48:37.009Z,36.40
2018-11-23T15:50:42.249Z,33.93
2018-11-23T15:52:46.936Z,38.00
2018-11-23T15:54:51.191Z,38.30
2018-11-23T15:56:55.586Z,38.53
2018-11-23T15:59:02.632Z,35.10
2018-11-23T16:01:09.689Z,35.13
2018-11-23T16:03:15.289Z,36.27
2018-11-23T16:05:19.608Z,37.83
2018-11-23T16:07:23.876Z,36.23
2018-11-23T16:09:28.101Z,35.67
2018-11-23T16:11:32.356Z,33.83
2018-11-23T16:13:36.582Z,37.70
2018-11-23T16:15:40.770Z,35.37
2018-11-23T16:17:44.976Z,33.60
2018-11-23T16:19:49.227Z,33.20
2018-11-23T16:21:53.500Z,35.37
2018-11-23T16:23:57.710Z,34.90
2018-11-23T16:26:01.902Z,35.40
2018-11-23T16:28:07.476Z,33.50
2018-11-23T16:30:17.945Z,33.77
2018-11-23T16:32:22.506Z,31.97
2018-11-23T16:34:26.713Z,38.03
2018-11-23T16:36:31.124Z,34.30
2018-11-23T16:38:35.294Z,34.83
2018-11-23T16:40:41.886Z,32.77
2018-11-23T16:42:46.072Z,35.97
2018-11-23T16:44:50.312Z,35.03
2018-11-23T16:46:54.591Z,33.67
2018-11-23T16:48:58.803Z,32.13
2018-11-23T16:51:03.136Z,33.07
2018-11-23T16:53:07.781Z,33.20
2018-11-23T16:55:13.199Z,32.93
2018-11-23T16:57:17.415Z,32.53
2018-11-23T16:59:21.809Z,34.17
2018-11-23T17:01:26.008Z,33.10
2018-11-23T17:03:30.158Z,33.23
2018-11-23T17:05:38.119Z,32.87
2018-11-23T17:07:42.310Z,34.87
2018-11-23T17:09:46.573Z,33.53
2018-11-23T17:11:50.947Z,34.90
2018-11-23T17:13:55.141Z,34.43
2018-11-23T17:15:59.475Z,34.20
2018-11-23T17:18:03.699Z,32.40
2018-11-23T17:20:10.108Z,33.07
2018-11-23T17:22:14.326Z,35.20
2018-11-23T17:24:18.590Z,35.23
2018-11-23T17:26:22.840Z,35.63
2018-11-23T17:28:27.085Z,34.57
2018-11-23T17:30:32.296Z,35.80
2018-11-23T17:32:36.519Z,37.50
2018-11-23T17:34:40.735Z,34.73
2018-11-23T17:36:44.968Z,34.70
2018-11-23T17:38:49.211Z,35.27
2018-11-23T17:40:53.438Z,32.87
2018-11-23T17:42:58.507Z,35.00
2018-11-23T17:45:02.220Z,34.70
2018-11-23T17:47:06.532Z,34.87
2018-11-23T17:49:10.728Z,36.07
2018-11-23T17:51:14.993Z,33.57
2018-11-23T17:53:19.216Z,34.60
2018-11-23T17:55:23.551Z,35.37
2018-11-23T17:57:27.757Z,34.23
2018-11-23T17:59:40.343Z,32.57
2018-11-23T18:01:44.611Z,32.47
2018-11-23T18:03:48.867Z,32.20
2018-11-23T18:05:53.094Z,32.97
2018-11-23T18:07:57.658Z,34.93
2018-11-23T18:10:01.885Z,33.57
2018-11-23T18:12:06.123Z,32.67
2018-11-23T18:14:10.332Z,34.67
2018-11-23T18:16:14.728Z,34.77
2018-11-23T18:18:18.878Z,31.03
2018-11-23T18:20:24.070Z,32.87
2018-11-23T18:22:28.368Z,35.20
2018-11-23T18:24:32.563Z,31.53
2018-11-23T18:26:36.777Z,34.73
2018-11-23T18:28:40.998Z,32.53
2018-11-23T18:30:45.229Z,33.93
2018-11-23T18:32:49.440Z,35.63
2018-11-23T18:34:53.716Z,32.40
2018-11-23T18:36:57.858Z,36.03
2018-11-23T18:39:02.101Z,33.80
2018-11-23T18:41:06.613Z,34.40
2018-11-23T18:43:10.835Z,33.77
2018-11-23T18:45:15.318Z,34.33
2018-11-23T18:47:19.534Z,33.07
2018-11-23T18:49:23.764Z,33.07
2018-11-23T18:51:28.209Z,32.17
2018-11-23T18:53:32.473Z,34.93
2018-11-23T18:55:36.713Z,31.67
2018-11-23T18:57:40.996Z,31.87
2018-11-23T18:59:45.162Z,31.70
2018-11-23T19:01:49.308Z,32.87
2018-11-23T19:03:53.533Z,34.40
2018-11-23T19:05:57.879Z,34.03
2018-11-23T19:08:02.118Z,38.13
2018-11-23T19:10:08.050Z,37.47
2018-11-23T19:12:12.291Z,39.50
2018-11-23T19:14:16.478Z,36.33
2018-11-23T19:16:20.699Z,44.57
2018-11-23T19:18:25.044Z,37.40
2018-11-23T19:20:29.219Z,35.40
2018-11-23T19:22:33.403Z,37.23
2018-11-23T19:24:37.576Z,34.57
2018-11-23T19:26:41.719Z,33.00
2018-11-23T19:28:45.915Z,32.77
2018-11-23T19:30:50.172Z,33.10
2018-11-23T19:32:54.485Z,36.13
2018-11-23T19:34:58.681Z,33.57
2018-11-23T19:37:02.859Z,44.47
2018-11-23T19:39:08.660Z,35.03
2018-11-23T19:41:12.808Z,41.03
2018-11-23T19:43:17.018Z,34.20
2018-11-23T19:45:21.386Z,38.83
2018-11-23T19:47:25.574Z,40.43
2018-11-23T19:49:29.803Z,35.03
2018-11-23T19:51:34.071Z,32.10
2018-11-23T19:53:38.314Z,30.07
2018-11-23T19:55:42.491Z,33.17
2018-11-23T19:57:46.726Z,36.03
2018-11-23T19:59:50.973Z,35.63
2018-11-23T20:01:55.456Z,31.40
2018-11-23T20:03:59.829Z,32.57
2018-11-23T20:06:04.231Z,32.50
2018-11-23T20:08:08.425Z,36.03
2018-11-23T20:10:15.097Z,31.97
2018-11-23T20:12:19.361Z,41.73
2018-11-23T20:14:23.797Z,34.30
2018-11-23T20:16:28.235Z,32.37
2018-11-23T20:18:32.452Z,31.73
2018-11-23T20:20:36.784Z,32.20
2018-11-23T20:22:41.507Z,29.07
2018-11-23T20:24:45.852Z,29.13
2018-11-23T20:26:50.397Z,30.97
2018-11-23T20:28:55.023Z,32.23
2018-11-23T20:30:59.395Z,33.40
2018-11-23T20:33:03.683Z,32.23
2018-11-23T20:35:09.353Z,30.03
2018-11-23T20:37:13.573Z,32.20
2018-11-23T20:39:17.874Z,31.73
2018-11-23T20:41:22.074Z,29.43
2018-11-23T20:43:26.281Z,31.20
2018-11-23T20:45:30.516Z,31.17
2018-11-23T20:47:34.707Z,26.40
2018-11-23T20:49:39.196Z,30.23
2018-11-23T20:51:43.267Z,30.07
2018-11-23T20:53:47.732Z,32.03
2018-11-23T20:55:51.867Z,30.63
2018-11-23T20:57:56.057Z,32.30
2018-11-23T21:00:00.359Z,32.30
2018-11-23T21:02:04.660Z,33.77
2018-11-23T21:04:08.896Z,30.43
2018-11-23T21:06:13.088Z,32.20
2018-11-23T21:08:17.232Z,32.83
2018-11-23T21:10:25.396Z,31.33
2018-11-23T21:12:30.073Z,32.10
2018-11-23T21:14:34.228Z,32.00
2018-11-23T21:16:38.467Z,33.53
2018-11-23T21:18:42.621Z,32.37
2018-11-23T21:20:46.797Z,31.30
2018-11-23T21:22:51.038Z,32.70
2018-11-23T21:24:55.315Z,33.63
2018-11-23T21:26:59.497Z,32.87
2018-11-23T21:29:03.683Z,34.37
2018-11-23T21:31:07.987Z,33.27
2018-11-23T21:33:12.254Z,31.90
2018-11-23T21:35:16.442Z,31.07
2018-11-23T21:37:20.647Z,33.03
2018-11-23T21:39:24.790Z,34.67
2018-11-23T21:41:29.766Z,33.10
2018-11-23T21:43:33.467Z,33.20
2018-11-23T21:45:37.661Z,31.43
2018-11-23T21:47:41.857Z,32.63
2018-11-23T21:49:46.034Z,32.97
2018-11-23T21:51:50.228Z,31.27
2018-11-23T21:53:54.441Z,28.70
2018-11-23T21:55:58.720Z,29.63
2018-11-23T21:58:02.979Z,31.70
2018-11-23T22:00:09.092Z,32.50
2018-11-23T22:02:13.266Z,32.13
2018-11-23T22:04:18.375Z,31.57
2018-11-23T22:06:22.564Z,33.50
2018-11-23T22:08:26.789Z,31.97
2018-11-23T22:10:31.069Z,31.70
2018-11-23T22:12:35.284Z,31.80
2018-11-23T22:14:39.451Z,29.47
2018-11-23T22:16:43.870Z,29.30
2018-11-23T22:18:48.011Z,30.50
2018-11-23T22:20:52.236Z,28.43
2018-11-23T22:22:56.463Z,29.97
2018-11-23T22:25:00.663Z,29.43
2018-11-23T22:27:04.927Z,30.57
2018-11-23T22:29:09.179Z,31.47
2018-11-23T22:31:13.404Z,32.60
2018-11-23T22:33:17.773Z,29.77
2018-11-23T22:35:22.021Z,30.30
2018-11-23T22:37:26.186Z,31.63
2018-11-23T22:39:30.427Z,32.67
2018-11-23T22:41:34.620Z,32.27
2018-11-23T22:43:38.903Z,31.53
2018-11-23T22:45:43.157Z,31.50
2018-11-23T22:47:47.375Z,33.17
2018-11-23T22:49:51.725Z,32.77
2018-11-23T22:51:55.935Z,31.77
2018-11-23T22:54:00.871Z,35.07
2018-11-23T22:56:05.202Z,34.70
2018-11-23T22:58:09.351Z,34.57
2018-11-23T23:00:21.971Z,33.90
2018-11-23T23:02:26.244Z,34.53
2018-11-23T23:04:30.435Z,34.57
2018-11-23T23:06:34.779Z,32.43
2018-11-23T23:08:38.946Z,31.97
2018-11-23T23:10:43.131Z,35.10
2018-11-23T23:12:47.357Z,36.10
2018-11-23T23:14:51.645Z,33.87
2018-11-23T23:16:55.871Z,32.43
2018-11-23T23:19:00.153Z,34.13
2018-11-23T23:21:04.356Z,35.10
2018-11-23T23:23:08.597Z,33.43
2018-11-23T23:25:13.353Z,31.97
2018-11-23T23:27:17.523Z,32.57
2018-11-23T23:29:21.741Z,33.53
2018-11-23T23:31:25.915Z,32.10
2018-11-23T23:33:30.228Z,33.30
2018-11-23T23:35:34.442Z,33.57
2018-11-23T23:37:38.803Z,34.07
2018-11-23T23:39:42.975Z,33.53
2018-11-23T23:41:47.169Z,31.80
2018-11-23T23:43:51.446Z,31.77
2018-11-23T23:45:55.764Z,34.00
2018-11-23T23:48:00.018Z,33.83
2018-11-23T23:50:04.379Z,32.73
2018-11-23T23:52:08.617Z,32.20
2018-11-23T23:54:13.055Z,31.90
2018-11-23T23:56:17.267Z,31.30
2018-11-23T23:58:21.467Z,33.07
